• Join FlightAware (Why Join?)
  • Login
  • US Flag 
04:55PM EDT


 

Airport Tracker/Info


-or-


 

Live Flight TrackerFlight Track Log ✈ SWA561 ✈ 22-Apr-2013 ✈ KOAK - KLAX

Flight Track Log - Related Links

Times and Time Zones

All times are in EDT time to prevent confusion due to time zone crossing. See the SWA561 flight status page for this flight to view local times or setup timezone preferences in your user account.

Time Position Orientation Groundspeed Altitude Reporting Facility
EDT Latitude Longitude Course Direction KTS MPH feet Rate Location/Type
08:10PM 37.7333 -122.2833 140° Southeast 177 204 2,800  Level Northern Cal TRACON
08:11PM 37.7500 -122.3500 288° West 225 259 5,800 2,760 Climbing Northern Cal TRACON
08:12PM 37.7369 -122.3667 225° Southwest 221 254 6,500 3,180 Climbing Oakland Center
08:12PM 37.6833 -122.4000 206° Southwest 294 338 9,000 3,840 Climbing Northern Cal TRACON
08:13PM 37.6000 -122.4167 189° South 306 352 12,900 3,060 Climbing Northern Cal TRACON
08:14PM 37.5828 -122.4300 212° Southwest 299 344 13,300 2,820 Climbing Oakland Center
08:15PM 37.4978 -122.3764 153° Southeast 362 417 16,900 3,000 Climbing Oakland Center
08:16PM 37.2631 -121.7315 140° Southeast  Level Estimated
08:16PM 37.4253 -122.2781 133° Southeast 382 440 19,500  Level Oakland Center
08:17PM 37.3342 -122.1564 133° Southeast 400 460 23,100 3,060 Climbing Oakland Center
08:18PM 37.2542 -122.0503 133° Southeast 419 482 25,800 2,520 Climbing Oakland Center
08:19PM 37.1711 -121.9386 133° Southeast 435 501 28,300 2,580 Climbing Oakland Center
08:20PM 37.0867 -121.8275 134° Southeast 441 507 31,100 2,160 Climbing Oakland Center
08:21PM 37.0022 -121.7192 134° Southeast 437 503 32,800 1,260 Climbing Oakland Center
08:22PM 36.9164 -121.6069 134° Southeast 444 511 33,700 1,080 Climbing Oakland Center
08:23PM 36.8300 -121.4942 134° Southeast 450 518 35,100 1,740 Climbing Oakland Center
08:24PM 36.7358 -121.3700 133° Southeast 449 517 37,300 1,680 Climbing Oakland Center
08:25PM 36.6494 -121.2567 134° Southeast 449 517 38,600 780 Climbing Oakland Center
08:26PM 36.5636 -121.1428 133° Southeast 452 520 39,000 180 Climbing Oakland Center
08:27PM 36.4750 -121.0306 134° Southeast 455 524 39,000  Level Oakland Center
08:28PM 36.3867 -120.9153 134° Southeast 459 528 39,000  Level Oakland Center
08:29PM 36.2983 -120.8008 134° Southeast 459 528 39,000  Level Oakland Center
08:30PM 36.2078 -120.6864 134° Southeast 462 532 39,000  Level Oakland Center
08:31PM 36.1006 -120.5503 134° Southeast 460 529 39,000  Level Oakland Center
08:32PM 36.0097 -120.4333 134° Southeast 468 539 39,000  Level Oakland Center
08:33PM 35.9200 -120.3219 135° Southeast 458 527 39,000  Level Oakland Center
08:34PM 35.8297 -120.2064 134° Southeast 462 532 39,000  Level Oakland Center
08:35PM 35.7386 -120.0922 134° Southeast 464 534 39,000  Level Oakland Center
08:36PM 35.6467 -119.9789 135° Southeast 464 534 39,000  Level Oakland Center
08:37PM 35.5408 -119.8872 145° Southeast 460 529 39,000  Level Oakland Center
08:38PM 35.4347 -119.7961 145° Southeast 461 531 39,000  Level Oakland Center
08:39PM 35.3303 -119.7056 145° Southeast 459 528 39,000  Level Oakland Center
08:40PM 35.2264 -119.6161 145° Southeast 456 525 39,000 -1,680 Level Oakland Center
08:41PM 35.1208 -119.5267 145° Southeast 457 526 35,600 -3,240 Descending Oakland Center
08:42PM 35.0119 -119.4339 145° Southeast 471 542 32,400 -3,420 Descending Oakland Center
08:43PM 34.9031 -119.3428 146° Southeast 472 543 28,700 -2,820 Descending Oakland Center
08:44PM 34.7961 -119.2528 145° Southeast 471 542 26,700 -2,340 Descending Oakland Center
08:45PM 34.7583 -119.2164 142° Southeast 465 535 25,800 -2,580 Descending Los Angeles Center
08:46PM 34.6600 -119.1358 146° Southeast 443 510 23,500 -2,220 Descending Los Angeles Center
08:47PM 34.5647 -119.0544 145° Southeast 419 482 21,300 -2,160 Descending Los Angeles Center
08:48PM 34.4731 -118.9778 145° Southeast 401 461 19,100 -2,100 Descending Los Angeles Center
08:49PM 34.3847 -118.9053 146° Southeast 385 443 17,000 -2,160 Descending Los Angeles Center
08:50PM 34.2911 -118.8567 157° South 367 422 14,700 -2,400 Descending Los Angeles Center
08:51PM 34.1767 -118.8147 163° South 357 411 12,100 -2,040 Descending Los Angeles Center
08:52PM 34.0850 -118.7808 163° South 346 398 10,600 -1,020 Descending Los Angeles Center
08:53PM 34.0336 -118.7028 128° Southeast 303 349 10,000 -540 Descending Los Angeles Center
08:54PM 34.0244 -118.6072 97° East 287 330 9,500 -840 Descending Los Angeles Center
08:55PM 34.0153 -118.5122 97° East 284 327 8,300 -1,020 Descending Los Angeles Center
08:56PM 34.0144 -118.4347 91° East 254 292 7,500 -960 Descending Los Angeles Center
08:57PM 34.0244 -118.3578 81° East 237 273 6,400 -1,200 Descending Los Angeles Center
08:58PM 34.0361 -118.2842 79° East 227 261 5,100 -1,260 Descending Los Angeles Center
08:59PM 34.0219 -118.2144 104° East 225 259 3,900 -1,140 Descending Los Angeles Center
09:00PM 33.9836 -118.2617 226° Southwest 205 236 2,800 -1,080 Descending Los Angeles Center
09:01PM 33.9631 -118.3175 246° West 191 220 1,800 -1,080 Descending Los Angeles Center
09:02PM 33.9575 -118.3647 262° West 161 185 700 -840 Descending Los Angeles Center
09:03PM 33.9522 -118.4050 261° West 139 160 100 -600 Descending Los Angeles Center
09:05PM 33.9425 -118.4081 228° Southwest  Level Estimated